sensor_id;sensor_type;location;lat;lon;timestamp;pressure;altitude;pressure_sealevel;temperature;humidity
23433;BME280;41331;45.412;10.992;2023-03-11T00:00:27;99012.81;;;13.41;47.45
23433;BME280;41331;45.412;10.992;2023-03-11T00:02:59;99004.22;;;13.43;47.88
23433;BME280;41331;45.412;10.992;2023-03-11T00:05:30;99002.75;;;13.60;47.03
23433;BME280;41331;45.412;10.992;2023-03-11T00:08:01;99007.06;;;13.64;47.08
23433;BME280;41331;45.412;10.992;2023-03-11T00:10:34;99007.44;;;13.56;47.14
23433;BME280;41331;45.412;10.992;2023-03-11T00:13:03;99010.41;;;13.33;47.76
23433;BME280;41331;45.412;10.992;2023-03-11T00:15:32;99010.06;;;13.45;47.78
23433;BME280;41331;45.412;10.992;2023-03-11T00:18:00;98992.94;;;13.55;47.70
23433;BME280;41331;45.412;10.992;2023-03-11T00:20:30;98991.63;;;13.24;47.93
23433;BME280;41331;45.412;10.992;2023-03-11T00:22:59;99000.50;;;13.10;48.35
23433;BME280;41331;45.412;10.992;2023-03-11T00:25:28;99005.06;;;12.99;48.64
23433;BME280;41331;45.412;10.992;2023-03-11T00:27:56;99000.09;;;13.12;48.24
23433;BME280;41331;45.412;10.992;2023-03-11T00:30:24;98996.03;;;12.88;48.57
23433;BME280;41331;45.412;10.992;2023-03-11T00:32:55;99006.53;;;12.86;48.71
23433;BME280;41331;45.412;10.992;2023-03-11T00:35:28;99003.06;;;12.92;49.08
23433;BME280;41331;45.412;10.992;2023-03-11T00:38:05;98995.97;;;12.84;49.39
23433;BME280;41331;45.412;10.992;2023-03-11T00:40:34;98996.75;;;12.81;49.12
23433;BME280;41331;45.412;10.992;2023-03-11T00:43:02;98998.50;;;12.59;49.76
23433;BME280;41331;45.412;10.992;2023-03-11T00:45:30;98999.75;;;12.69;49.59
23433;BME280;41331;45.412;10.992;2023-03-11T00:47:57;99009.28;;;12.86;49.05
23433;BME280;41331;45.412;10.992;2023-03-11T00:50:28;99007.69;;;12.81;48.97
23433;BME280;41331;45.412;10.992;2023-03-11T00:52:56;99000.88;;;12.61;49.60
23433;BME280;41331;45.412;10.992;2023-03-11T00:55:27;98988.06;;;12.68;49.37
23433;BME280;41331;45.412;10.992;2023-03-11T00:57:59;98971.50;;;12.47;50.06
23433;BME280;41331;45.412;10.992;2023-03-11T01:00:31;98973.59;;;12.61;49.80
23433;BME280;41331;45.412;10.992;2023-03-11T01:02:59;98976.22;;;12.50;49.97
23433;BME280;41331;45.412;10.992;2023-03-11T01:05:29;98972.22;;;12.40;49.83
23433;BME280;41331;45.412;10.992;2023-03-11T01:07:58;98973.03;;;12.44;49.79
23433;BME280;41331;45.412;10.992;2023-03-11T01:10:27;98966.78;;;12.44;49.70
23433;BME280;41331;45.412;10.992;2023-03-11T01:12:55;98962.16;;;12.48;49.61
23433;BME280;41331;45.412;10.992;2023-03-11T01:15:34;98967.66;;;12.52;49.19
23433;BME280;41331;45.412;10.992;2023-03-11T01:18:02;98963.72;;;12.49;49.34
23433;BME280;41331;45.412;10.992;2023-03-11T01:20:33;98952.09;;;12.56;49.50
23433;BME280;41331;45.412;10.992;2023-03-11T01:23:00;98958.28;;;12.53;49.18
23433;BME280;41331;45.412;10.992;2023-03-11T01:25:28;98952.78;;;12.46;49.48
23433;BME280;41331;45.412;10.992;2023-03-11T01:27:57;98958.25;;;12.46;49.57
23433;BME280;41331;45.412;10.992;2023-03-11T01:30:26;98944.59;;;12.46;49.52
23433;BME280;41331;45.412;10.992;2023-03-11T01:32:55;98936.78;;;12.44;49.55
23433;BME280;41331;45.412;10.992;2023-03-11T01:35:24;98933.25;;;12.43;49.49
23433;BME280;41331;45.412;10.992;2023-03-11T01:37:53;98925.34;;;12.28;49.89
23433;BME280;41331;45.412;10.992;2023-03-11T01:42:59;98925.38;;;12.31;50.21
23433;BME280;41331;45.412;10.992;2023-03-11T01:48:21;98899.59;;;12.25;50.13
23433;BME280;41331;45.412;10.992;2023-03-11T01:50:49;98903.38;;;12.13;50.41
23433;BME280;41331;45.412;10.992;2023-03-11T01:53:17;98918.91;;;12.06;50.88
23433;BME280;41331;45.412;10.992;2023-03-11T01:55:47;98921.69;;;12.13;50.80
23433;BME280;41331;45.412;10.992;2023-03-11T01:58:18;98917.69;;;12.03;51.19
23433;BME280;41331;45.412;10.992;2023-03-11T02:00:47;98922.38;;;12.03;51.35
23433;BME280;41331;45.412;10.992;2023-03-11T02:03:21;98914.28;;;12.10;51.21
23433;BME280;41331;45.412;10.992;2023-03-11T02:05:51;98913.44;;;12.06;51.44
23433;BME280;41331;45.412;10.992;2023-03-11T02:08:20;98899.78;;;12.02;51.01
23433;BME280;41331;45.412;10.992;2023-03-11T02:10:48;98906.09;;;12.13;50.81
23433;BME280;41331;45.412;10.992;2023-03-11T02:13:18;98911.41;;;11.99;51.30
23433;BME280;41331;45.412;10.992;2023-03-11T02:15:46;98900.41;;;11.88;51.86
23433;BME280;41331;45.412;10.992;2023-03-11T02:18:14;98883.13;;;12.11;51.40
23433;BME280;41331;45.412;10.992;2023-03-11T02:23:26;98870.84;;;11.94;52.01
23433;BME280;41331;45.412;10.992;2023-03-11T02:26:00;98865.53;;;12.08;51.48
23433;BME280;41331;45.412;10.992;2023-03-11T02:28:33;98875.63;;;12.04;52.07
23433;BME280;41331;45.412;10.992;2023-03-11T02:31:02;98879.19;;;11.71;53.32
23433;BME280;41331;45.412;10.992;2023-03-11T02:33:31;98888.84;;;11.65;54.46
23433;BME280;41331;45.412;10.992;2023-03-11T02:35:59;98891.25;;;11.74;54.55
23433;BME280;41331;45.412;10.992;2023-03-11T02:38:26;98894.63;;;11.93;53.78
23433;BME280;41331;45.412;10.992;2023-03-11T02:41:00;98897.16;;;11.79;54.49
23433;BME280;41331;45.412;10.992;2023-03-11T02:43:39;98878.31;;;11.63;54.88
23433;BME280;41331;45.412;10.992;2023-03-11T02:46:10;98887.25;;;11.60;55.71
23433;BME280;41331;45.412;10.992;2023-03-11T02:48:38;98881.19;;;11.44;55.97
23433;BME280;41331;45.412;10.992;2023-03-11T02:51:06;98875.47;;;11.53;55.97
23433;BME280;41331;45.412;10.992;2023-03-11T02:53:39;98867.75;;;11.58;55.57
23433;BME280;41331;45.412;10.992;2023-03-11T02:56:09;98873.91;;;11.52;55.60
23433;BME280;41331;45.412;10.992;2023-03-11T02:58:37;98886.97;;;11.39;55.80
23433;BME280;41331;45.412;10.992;2023-03-11T03:01:05;98884.25;;;11.39;55.75
23433;BME280;41331;45.412;10.992;2023-03-11T03:03:33;98887.28;;;11.30;56.01
23433;BME280;41331;45.412;10.992;2023-03-11T03:06:01;98882.69;;;11.38;56.35
23433;BME280;41331;45.412;10.992;2023-03-11T03:08:28;98889.16;;;11.26;56.47
23433;BME280;41331;45.412;10.992;2023-03-11T03:10:55;98882.97;;;11.29;56.01
23433;BME280;41331;45.412;10.992;2023-03-11T03:13:23;98874.47;;;11.34;55.73
23433;BME280;41331;45.412;10.992;2023-03-11T03:15:50;98879.91;;;11.34;56.37
23433;BME280;41331;45.412;10.992;2023-03-11T03:18:18;98887.75;;;11.36;55.98
23433;BME280;41331;45.412;10.992;2023-03-11T03:20:45;98883.91;;;11.40;55.96
23433;BME280;41331;45.412;10.992;2023-03-11T03:23:13;98885.22;;;11.54;54.92
23433;BME280;41331;45.412;10.992;2023-03-11T03:25:42;98899.38;;;11.66;54.56
23433;BME280;41331;45.412;10.992;2023-03-11T03:28:11;98906.56;;;11.48;55.24
23433;BME280;41331;45.412;10.992;2023-03-11T03:30:43;98917.31;;;11.37;55.65
23433;BME280;41331;45.412;10.992;2023-03-11T03:33:11;98912.25;;;11.36;55.47
23433;BME280;41331;45.412;10.992;2023-03-11T03:35:41;98916.53;;;11.37;55.43
23433;BME280;41331;45.412;10.992;2023-03-11T03:38:21;98896.53;;;11.56;55.25
23433;BME280;41331;45.412;10.992;2023-03-11T03:40:51;98881.69;;;11.50;55.10
23433;BME280;41331;45.412;10.992;2023-03-11T03:43:20;98869.41;;;11.33;56.56
23433;BME280;41331;45.412;10.992;2023-03-11T03:45:59;98867.88;;;11.35;56.32
23433;BME280;41331;45.412;10.992;2023-03-11T03:48:31;98852.22;;;11.29;57.75
23433;BME280;41331;45.412;10.992;2023-03-11T03:51:06;98870.38;;;11.18;58.88
23433;BME280;41331;45.412;10.992;2023-03-11T03:53:39;98883.78;;;11.00;58.58
23433;BME280;41331;45.412;10.992;2023-03-11T03:56:09;98888.34;;;10.92;58.34
23433;BME280;41331;45.412;10.992;2023-03-11T03:58:37;98882.63;;;11.01;58.38
23433;BME280;41331;45.412;10.992;2023-03-11T04:01:06;98884.97;;;11.02;58.55
23433;BME280;41331;45.412;10.992;2023-03-11T04:03:35;98880.63;;;10.98;58.94
23433;BME280;41331;45.412;10.992;2023-03-11T04:06:20;98883.41;;;11.01;58.26
23433;BME280;41331;45.412;10.992;2023-03-11T04:08:55;98884.03;;;10.91;58.45
23433;BME280;41331;45.412;10.992;2023-03-11T04:11:28;98890.66;;;10.94;57.45
23433;BME280;41331;45.412;10.992;2023-03-11T04:13:57;98901.09;;;10.88;58.78
23433;BME280;41331;45.412;10.992;2023-03-11T04:16:25;98922.22;;;10.95;59.08
23433;BME280;41331;45.412;10.992;2023-03-11T04:18:58;98914.69;;;10.84;58.46
23433;BME280;41331;45.412;10.992;2023-03-11T04:21:28;98926.03;;;10.90;58.60
23433;BME280;41331;45.412;10.992;2023-03-11T04:23:56;98924.97;;;10.98;58.16
23433;BME280;41331;45.412;10.992;2023-03-11T04:26:29;98930.84;;;11.00;57.65
23433;BME280;41331;45.412;10.992;2023-03-11T04:28:57;98946.06;;;11.05;57.64
23433;BME280;41331;45.412;10.992;2023-03-11T04:31:26;98944.72;;;10.92;58.27
23433;BME280;41331;45.412;10.992;2023-03-11T04:33:55;98948.06;;;10.81;59.58
23433;BME280;41331;45.412;10.992;2023-03-11T04:36:22;98943.72;;;10.77;59.49
23433;BME280;41331;45.412;10.992;2023-03-11T04:38:50;98955.53;;;10.88;59.32
23433;BME280;41331;45.412;10.992;2023-03-11T04:41:19;98947.13;;;10.97;60.30
23433;BME280;41331;45.412;10.992;2023-03-11T04:43:47;98954.91;;;10.98;59.67
23433;BME280;41331;45.412;10.992;2023-03-11T04:46:14;98952.41;;;10.86;59.40
23433;BME280;41331;45.412;10.992;2023-03-11T04:48:42;98960.94;;;10.84;59.15
23433;BME280;41331;45.412;10.992;2023-03-11T04:51:09;98975.81;;;10.68;60.76
23433;BME280;41331;45.412;10.992;2023-03-11T04:53:37;98980.47;;;10.67;60.88
23433;BME280;41331;45.412;10.992;2023-03-11T04:56:04;98973.84;;;10.65;61.01
23433;BME280;41331;45.412;10.992;2023-03-11T04:58:33;98969.56;;;10.41;62.46
23433;BME280;41331;45.412;10.992;2023-03-11T05:01:00;98954.56;;;10.50;61.75
23433;BME280;41331;45.412;10.992;2023-03-11T05:03:28;98930.00;;;10.47;61.69
23433;BME280;41331;45.412;10.992;2023-03-11T05:05:55;98922.03;;;10.57;61.66
23433;BME280;41331;45.412;10.992;2023-03-11T05:08:24;98916.59;;;10.57;60.81
23433;BME280;41331;45.412;10.992;2023-03-11T05:10:53;98929.50;;;10.64;60.76
23433;BME280;41331;45.412;10.992;2023-03-11T05:13:21;98926.44;;;10.66;61.66
23433;BME280;41331;45.412;10.992;2023-03-11T05:15:51;98925.03;;;10.75;62.18
23433;BME280;41331;45.412;10.992;2023-03-11T05:18:18;98913.06;;;10.80;62.24
23433;BME280;41331;45.412;10.992;2023-03-11T05:20:47;98912.09;;;10.69;61.93
23433;BME280;41331;45.412;10.992;2023-03-11T05:23:15;98916.91;;;10.79;61.18
23433;BME280;41331;45.412;10.992;2023-03-11T05:25:43;98923.28;;;10.63;62.24
23433;BME280;41331;45.412;10.992;2023-03-11T05:28:10;98923.19;;;10.56;62.51
23433;BME280;41331;45.412;10.992;2023-03-11T05:30:44;98922.41;;;10.56;62.95
23433;BME280;41331;45.412;10.992;2023-03-11T05:33:11;98936.00;;;10.56;63.92
23433;BME280;41331;45.412;10.992;2023-03-11T05:35:39;98939.50;;;10.56;64.92
23433;BME280;41331;45.412;10.992;2023-03-11T05:38:06;98937.19;;;10.58;64.49
23433;BME280;41331;45.412;10.992;2023-03-11T05:40:34;98946.25;;;10.66;64.67
23433;BME280;41331;45.412;10.992;2023-03-11T05:43:02;98959.69;;;10.55;65.43
23433;BME280;41331;45.412;10.992;2023-03-11T05:45:36;98982.91;;;10.49;65.33
23433;BME280;41331;45.412;10.992;2023-03-11T05:48:05;98990.03;;;10.57;65.81
23433;BME280;41331;45.412;10.992;2023-03-11T05:50:37;98979.91;;;10.54;66.46
23433;BME280;41331;45.412;10.992;2023-03-11T05:53:04;98969.91;;;10.62;66.44
23433;BME280;41331;45.412;10.992;2023-03-11T05:55:32;98964.09;;;10.63;66.46
23433;BME280;41331;45.412;10.992;2023-03-11T05:57:59;98975.25;;;10.55;66.65
23433;BME280;41331;45.412;10.992;2023-03-11T06:00:27;98952.19;;;10.49;66.39
23433;BME280;41331;45.412;10.992;2023-03-11T06:02:58;98967.69;;;10.45;66.77
23433;BME280;41331;45.412;10.992;2023-03-11T06:05:25;98989.22;;;10.34;66.45
23433;BME280;41331;45.412;10.992;2023-03-11T06:07:54;98996.38;;;10.23;66.65
23433;BME280;41331;45.412;10.992;2023-03-11T06:10:22;99006.47;;;10.42;66.77
23433;BME280;41331;45.412;10.992;2023-03-11T06:12:49;98992.66;;;10.50;66.53
23433;BME280;41331;45.412;10.992;2023-03-11T06:15:24;98971.66;;;10.51;66.69
23433;BME280;41331;45.412;10.992;2023-03-11T06:17:52;98971.19;;;10.45;66.72
23433;BME280;41331;45.412;10.992;2023-03-11T06:20:20;98961.31;;;10.37;66.99
23433;BME280;41331;45.412;10.992;2023-03-11T06:22:48;98948.19;;;10.43;67.00
23433;BME280;41331;45.412;10.992;2023-03-11T06:25:16;98951.09;;;10.53;67.22
23433;BME280;41331;45.412;10.992;2023-03-11T06:27:49;98954.72;;;10.61;67.05
23433;BME280;41331;45.412;10.992;2023-03-11T06:30:19;98952.72;;;10.58;67.02
23433;BME280;41331;45.412;10.992;2023-03-11T06:33:09;98960.94;;;10.84;66.56
23433;BME280;41331;45.412;10.992;2023-03-11T06:35:39;98971.41;;;13.36;58.44
23433;BME280;41331;45.412;10.992;2023-03-11T06:38:08;98971.59;;;15.75;51.55
23433;BME280;41331;45.412;10.992;2023-03-11T06:40:37;98973.88;;;17.05;46.57
23433;BME280;41331;45.412;10.992;2023-03-11T06:43:04;98977.13;;;17.34;45.62
23433;BME280;41331;45.412;10.992;2023-03-11T06:45:38;98972.56;;;18.47;42.62
23433;BME280;41331;45.412;10.992;2023-03-11T06:48:05;98974.97;;;18.72;41.27
23433;BME280;41331;45.412;10.992;2023-03-11T06:50:33;98971.38;;;19.41;40.36
23433;BME280;41331;45.412;10.992;2023-03-11T06:53:02;98981.66;;;20.01;39.42
23433;BME280;41331;45.412;10.992;2023-03-11T06:55:34;98986.81;;;19.59;38.81
23433;BME280;41331;45.412;10.992;2023-03-11T06:58:02;98994.72;;;19.37;38.23
23433;BME280;41331;45.412;10.992;2023-03-11T07:00:32;99006.53;;;19.61;39.27
23433;BME280;41331;45.412;10.992;2023-03-11T07:03:02;98997.09;;;20.34;36.80
23433;BME280;41331;45.412;10.992;2023-03-11T07:05:30;98999.00;;;20.74;35.76
23433;BME280;41331;45.412;10.992;2023-03-11T07:08:03;99015.22;;;20.72;35.56
23433;BME280;41331;45.412;10.992;2023-03-11T07:10:30;99012.38;;;20.91;34.86
23433;BME280;41331;45.412;10.992;2023-03-11T07:12:58;99000.84;;;21.42;34.75
23433;BME280;41331;45.412;10.992;2023-03-11T07:15:25;99013.50;;;21.10;34.49
23433;BME280;41331;45.412;10.992;2023-03-11T07:17:53;99012.66;;;21.59;32.57
23433;BME280;41331;45.412;10.992;2023-03-11T07:20:21;99018.72;;;21.54;32.54
23433;BME280;41331;45.412;10.992;2023-03-11T07:22:48;99018.94;;;21.14;33.82
23433;BME280;41331;45.412;10.992;2023-03-11T07:25:16;99021.94;;;21.03;35.19
23433;BME280;41331;45.412;10.992;2023-03-11T07:27:43;99016.56;;;20.47;35.28
23433;BME280;41331;45.412;10.992;2023-03-11T07:30:11;99012.13;;;20.69;35.30
23433;BME280;41331;45.412;10.992;2023-03-11T07:32:40;99015.56;;;21.06;34.52
23433;BME280;41331;45.412;10.992;2023-03-11T07:35:09;99018.81;;;21.50;34.74
23433;BME280;41331;45.412;10.992;2023-03-11T07:37:36;99021.44;;;22.12;33.84
23433;BME280;41331;45.412;10.992;2023-03-11T07:40:04;99022.13;;;22.29;33.47
23433;BME280;41331;45.412;10.992;2023-03-11T07:42:32;99028.53;;;22.13;34.23
23433;BME280;41331;45.412;10.992;2023-03-11T07:45:00;99023.50;;;20.19;36.32
23433;BME280;41331;45.412;10.992;2023-03-11T07:47:28;99032.56;;;18.89;39.24
23433;BME280;41331;45.412;10.992;2023-03-11T07:49:58;99039.38;;;17.55;42.02
23433;BME280;41331;45.412;10.992;2023-03-11T07:52:29;99036.81;;;17.38;41.83
23433;BME280;41331;45.412;10.992;2023-03-11T07:54:58;99031.19;;;16.51;44.47
23433;BME280;41331;45.412;10.992;2023-03-11T07:57:25;99044.34;;;16.15;45.54
23433;BME280;41331;45.412;10.992;2023-03-11T07:59:52;99046.13;;;15.41;47.24
23433;BME280;41331;45.412;10.992;2023-03-11T08:02:20;99041.84;;;14.97;49.48
23433;BME280;41331;45.412;10.992;2023-03-11T08:04:47;99050.03;;;14.72;51.56
23433;BME280;41331;45.412;10.992;2023-03-11T08:07:15;99046.88;;;14.53;51.18
23433;BME280;41331;45.412;10.992;2023-03-11T08:09:42;99046.78;;;14.35;51.67
23433;BME280;41331;45.412;10.992;2023-03-11T08:12:09;99043.69;;;14.40;52.60
23433;BME280;41331;45.412;10.992;2023-03-11T08:14:36;99057.84;;;14.63;51.54
23433;BME280;41331;45.412;10.992;2023-03-11T08:17:05;99068.38;;;14.50;51.85
23433;BME280;41331;45.412;10.992;2023-03-11T08:19:33;99099.63;;;14.42;52.83
23433;BME280;41331;45.412;10.992;2023-03-11T08:22:03;99100.00;;;14.41;54.40
23433;BME280;41331;45.412;10.992;2023-03-11T08:24:32;99114.84;;;14.36;54.79
23433;BME280;41331;45.412;10.992;2023-03-11T08:26:59;99121.84;;;14.30;56.66
23433;BME280;41331;45.412;10.992;2023-03-11T08:29:29;99110.50;;;14.28;57.33
23433;BME280;41331;45.412;10.992;2023-03-11T08:31:56;99085.94;;;14.46;56.62
23433;BME280;41331;45.412;10.992;2023-03-11T08:34:24;99035.13;;;14.56;54.62
23433;BME280;41331;45.412;10.992;2023-03-11T08:36:53;99055.03;;;14.38;55.42
23433;BME280;41331;45.412;10.992;2023-03-11T08:39:21;99083.47;;;14.12;58.35
23433;BME280;41331;45.412;10.992;2023-03-11T08:41:50;99075.66;;;14.14;58.75
23433;BME280;41331;45.412;10.992;2023-03-11T08:44:17;99070.16;;;14.04;59.43
23433;BME280;41331;45.412;10.992;2023-03-11T08:46:44;99069.47;;;14.28;58.75
23433;BME280;41331;45.412;10.992;2023-03-11T08:49:12;99072.47;;;14.05;59.79
23433;BME280;41331;45.412;10.992;2023-03-11T08:51:39;99067.50;;;14.29;59.93
23433;BME280;41331;45.412;10.992;2023-03-11T08:54:07;99080.06;;;14.37;59.86
23433;BME280;41331;45.412;10.992;2023-03-11T08:56:34;99076.19;;;16.79;55.19
23433;BME280;41331;45.412;10.992;2023-03-11T08:59:01;99071.78;;;19.91;46.36
23433;BME280;41331;45.412;10.992;2023-03-11T09:01:29;99067.69;;;22.28;41.17
23433;BME280;41331;45.412;10.992;2023-03-11T09:03:56;99061.38;;;23.29;38.31
23433;BME280;41331;45.412;10.992;2023-03-11T09:06:24;99069.69;;;24.42;36.71
23433;BME280;41331;45.412;10.992;2023-03-11T09:08:51;99068.50;;;25.42;34.76
23433;BME280;41331;45.412;10.992;2023-03-11T09:11:19;99061.25;;;25.91;33.87
23433;BME280;41331;45.412;10.992;2023-03-11T09:13:49;99051.13;;;25.29;34.74
23433;BME280;41331;45.412;10.992;2023-03-11T09:16:19;99055.38;;;25.89;33.90
23433;BME280;41331;45.412;10.992;2023-03-11T09:18:47;99064.13;;;26.33;33.96
23433;BME280;41331;45.412;10.992;2023-03-11T09:21:14;99064.31;;;25.47;35.70
23433;BME280;41331;45.412;10.992;2023-03-11T09:23:42;99049.19;;;24.98;36.48
23433;BME280;41331;45.412;10.992;2023-03-11T09:26:12;99047.91;;;26.13;35.59
23433;BME280;41331;45.412;10.992;2023-03-11T09:28:40;99052.41;;;25.55;36.51
23433;BME280;41331;45.412;10.992;2023-03-11T09:31:08;99054.44;;;25.92;36.19
23433;BME280;41331;45.412;10.992;2023-03-11T09:33:38;99048.53;;;25.53;37.01
23433;BME280;41331;45.412;10.992;2023-03-11T09:36:06;99060.03;;;25.92;36.46
23433;BME280;41331;45.412;10.992;2023-03-11T09:38:34;99067.16;;;24.13;38.95
23433;BME280;41331;45.412;10.992;2023-03-11T09:41:08;99076.78;;;24.65;38.66
23433;BME280;41331;45.412;10.992;2023-03-11T09:46:29;99064.16;;;25.60;37.56
23433;BME280;41331;45.412;10.992;2023-03-11T09:49:13;99087.88;;;25.82;37.45
23433;BME280;41331;45.412;10.992;2023-03-11T09:51:57;99088.91;;;25.48;37.63
23433;BME280;41331;45.412;10.992;2023-03-11T09:54:26;99096.53;;;25.66;37.46
23433;BME280;41331;45.412;10.992;2023-03-11T09:56:59;99096.88;;;25.87;37.94
23433;BME280;41331;45.412;10.992;2023-03-11T09:59:30;99092.94;;;25.38;37.81
23433;BME280;41331;45.412;10.992;2023-03-11T10:01:59;99081.06;;;25.83;37.89
23433;BME280;41331;45.412;10.992;2023-03-11T10:04:40;99094.03;;;26.32;36.57
23433;BME280;41331;45.412;10.992;2023-03-11T10:07:15;99082.94;;;25.96;37.34
23433;BME280;41331;45.412;10.992;2023-03-11T10:09:55;99068.53;;;25.97;36.96
23433;BME280;41331;45.412;10.992;2023-03-11T10:21:10;99114.28;;;20.57;49.66
23433;BME280;41331;45.412;10.992;2023-03-11T10:26:54;99120.75;;;22.13;47.82
23433;BME280;41331;45.412;10.992;2023-03-11T10:29:41;99131.19;;;21.31;49.35
23433;BME280;41331;45.412;10.992;2023-03-11T10:32:28;99127.25;;;21.12;50.75
23433;BME280;41331;45.412;10.992;2023-03-11T10:37:38;99136.41;;;19.74;54.81
23433;BME280;41331;45.412;10.992;2023-03-11T10:42:54;99155.56;;;19.34;57.32
23433;BME280;41331;45.412;10.992;2023-03-11T10:45:23;99140.69;;;19.28;58.59
23433;BME280;41331;45.412;10.992;2023-03-11T10:47:51;99148.53;;;19.02;59.03
23433;BME280;41331;45.412;10.992;2023-03-11T10:50:19;99148.63;;;18.99;60.05
23433;BME280;41331;45.412;10.992;2023-03-11T10:53:07;99151.75;;;18.70;59.85
23433;BME280;41331;45.412;10.992;2023-03-11T10:55:35;99153.91;;;18.55;60.42
23433;BME280;41331;45.412;10.992;2023-03-11T10:58:16;99150.06;;;18.46;60.45
23433;BME280;41331;45.412;10.992;2023-03-11T11:00:44;99143.94;;;18.65;60.79
23433;BME280;41331;45.412;10.992;2023-03-11T11:03:19;99146.25;;;18.97;59.52
23433;BME280;41331;45.412;10.992;2023-03-11T11:06:18;99153.06;;;19.43;59.01
23433;BME280;41331;45.412;10.992;2023-03-11T11:08:45;99150.91;;;19.78;55.53
23433;BME280;41331;45.412;10.992;2023-03-11T11:11:21;99159.72;;;19.92;55.06
23433;BME280;41331;45.412;10.992;2023-03-11T11:13:56;99152.13;;;19.77;55.21
23433;BME280;41331;45.412;10.992;2023-03-11T11:16:26;99151.31;;;20.00;55.16
23433;BME280;41331;45.412;10.992;2023-03-11T11:19:07;99154.94;;;20.76;51.49
23433;BME280;41331;45.412;10.992;2023-03-11T11:21:45;99147.41;;;21.29;49.53
23433;BME280;41331;45.412;10.992;2023-03-11T11:24:22;99150.19;;;21.62;48.42
23433;BME280;41331;45.412;10.992;2023-03-11T11:27:16;99144.81;;;20.30;52.14
23433;BME280;41331;45.412;10.992;2023-03-11T11:29:46;99155.41;;;19.91;53.99
23433;BME280;41331;45.412;10.992;2023-03-11T11:35:18;99138.94;;;21.20;51.63
23433;BME280;41331;45.412;10.992;2023-03-11T11:37:51;99130.03;;;21.61;49.34
23433;BME280;41331;45.412;10.992;2023-03-11T11:40:29;99131.06;;;20.46;52.21
23433;BME280;41331;45.412;10.992;2023-03-11T11:43:04;99115.59;;;21.21;50.80
23433;BME280;41331;45.412;10.992;2023-03-11T11:45:36;99126.31;;;21.97;47.68
23433;BME280;41331;45.412;10.992;2023-03-11T11:48:18;99127.91;;;22.27;46.14
23433;BME280;41331;45.412;10.992;2023-03-11T11:50:51;99119.88;;;22.16;47.04
23433;BME280;41331;45.412;10.992;2023-03-11T11:53:40;99116.47;;;22.25;46.85
23433;BME280;41331;45.412;10.992;2023-03-11T11:56:09;99113.06;;;21.76;47.22
23433;BME280;41331;45.412;10.992;2023-03-11T11:58:37;99110.25;;;21.46;48.06
23433;BME280;41331;45.412;10.992;2023-03-11T12:01:14;99111.16;;;22.02;47.18
23433;BME280;41331;45.412;10.992;2023-03-11T12:04:03;99102.94;;;22.27;46.63
23433;BME280;41331;45.412;10.992;2023-03-11T12:06:53;99099.81;;;22.12;46.60
23433;BME280;41331;45.412;10.992;2023-03-11T12:09:51;99092.34;;;21.80;47.23
23433;BME280;41331;45.412;10.992;2023-03-11T12:16:09;99100.41;;;22.04;46.98
23433;BME280;41331;45.412;10.992;2023-03-11T12:24:38;99090.06;;;21.13;47.80
23433;BME280;41331;45.412;10.992;2023-03-11T12:27:24;99099.25;;;21.59;47.52
23433;BME280;41331;45.412;10.992;2023-03-11T12:30:03;99104.13;;;21.84;46.92
23433;BME280;41331;45.412;10.992;2023-03-11T12:32:35;99083.91;;;21.71;46.58
23433;BME280;41331;45.412;10.992;2023-03-11T12:40:56;99088.38;;;22.10;46.01
23433;BME280;41331;45.412;10.992;2023-03-11T12:46:05;99098.88;;;22.32;46.41
23433;BME280;41331;45.412;10.992;2023-03-11T12:54:29;99080.84;;;22.11;44.94
23433;BME280;41331;45.412;10.992;2023-03-11T12:57:02;99081.00;;;22.20;44.20
23433;BME280;41331;45.412;10.992;2023-03-11T13:08:44;99088.09;;;22.21;42.82
23433;BME280;41331;45.412;10.992;2023-03-11T13:16:35;99086.81;;;22.09;41.99
23433;BME280;41331;45.412;10.992;2023-03-11T13:21:49;99083.81;;;22.58;40.77
23433;BME280;41331;45.412;10.992;2023-03-11T13:29:45;99095.34;;;21.57;41.75
23433;BME280;41331;45.412;10.992;2023-03-11T13:32:41;99085.84;;;21.87;40.92
23433;BME280;41331;45.412;10.992;2023-03-11T13:41:01;99084.38;;;22.40;40.17
23433;BME280;41331;45.412;10.992;2023-03-11T13:43:29;99084.47;;;22.37;39.39
23433;BME280;41331;45.412;10.992;2023-03-11T13:46:00;99083.63;;;22.11;40.52
23433;BME280;41331;45.412;10.992;2023-03-11T13:48:32;99087.25;;;22.08;41.58
23433;BME280;41331;45.412;10.992;2023-03-11T13:51:06;99083.09;;;22.16;41.77
23433;BME280;41331;45.412;10.992;2023-03-11T13:53:44;99086.97;;;21.89;41.33
23433;BME280;41331;45.412;10.992;2023-03-11T13:56:21;99084.31;;;21.98;41.06
23433;BME280;41331;45.412;10.992;2023-03-11T13:58:51;99096.06;;;21.90;39.95
23433;BME280;41331;45.412;10.992;2023-03-11T14:01:19;99094.19;;;21.70;40.99
23433;BME280;41331;45.412;10.992;2023-03-11T14:03:47;99089.81;;;21.57;40.35
23433;BME280;41331;45.412;10.992;2023-03-11T14:06:17;99082.84;;;21.81;40.72
23433;BME280;41331;45.412;10.992;2023-03-11T14:08:53;99090.75;;;21.95;40.37
23433;BME280;41331;45.412;10.992;2023-03-11T14:11:28;99081.66;;;21.95;41.61
23433;BME280;41331;45.412;10.992;2023-03-11T14:13:55;99074.38;;;22.01;41.14
23433;BME280;41331;45.412;10.992;2023-03-11T14:16:34;99078.16;;;22.07;42.60
23433;BME280;41331;45.412;10.992;2023-03-11T14:19:15;99084.13;;;22.35;40.30
23433;BME280;41331;45.412;10.992;2023-03-11T14:21:44;99085.88;;;22.16;40.67
23433;BME280;41331;45.412;10.992;2023-03-11T14:24:17;99096.84;;;22.19;41.03
23433;BME280;41331;45.412;10.992;2023-03-11T14:26:45;99100.72;;;21.93;43.75
23433;BME280;41331;45.412;10.992;2023-03-11T14:29:20;99097.00;;;21.21;41.46
23433;BME280;41331;45.412;10.992;2023-03-11T14:31:50;99100.47;;;21.09;41.49